Terminal Aerodrome Forecast
Issued by NWS

Current Version | Previous Version | Graphics & Text | Print | Product List | Glossary On
Versions: 1 2 3 4 5 6 7 8 9 10 11 12 13 14 15 16
758
FTUS41 KPBZ 240752 AAA
TAFHLG
TAF AMD
KHLG 240752Z 2408/2506 35004KT 5SM BR BKN008
     FM241000 35005KT P6SM SCT008 BKN015
     FM241600 03006KT P6SM BKN035
     FM242000 01005KT P6SM SKC=

USA.gov is the U.S. government's official web portal to all federal, state and local government web resources and services.